This is the latest recevied weather packets stored in our database for station/object K5GTX. If no packets are shown the sender has not sent any weather packets the latest 1 day(s).
| Time | Temp. | Humidity | Pressure | Rain* | Wind** | Luminosity | Snow |
|---|---|---|---|---|---|---|---|
| 1778029988 | 23.33° C | 99% | 1012.4 hPa | 0 mm | 2.24 m/s, 65° | 0 W/m² | - |
| 1778029686 | 23.33° C | 99% | 1012.3 hPa | 0 mm | 3.58 m/s, 46° | 0 W/m² | - |
| 1778029383 | 23.33° C | 99% | 1012.3 hPa | 0 mm | 1.34 m/s, 0° | 0 W/m² | - |
| 1778029080 | 23.33° C | 99% | 1012 hPa | 0 mm | 1.34 m/s, 47° | 0 W/m² | - |
| 1778028777 | 23.33° C | 99% | 1011.7 hPa | 0 mm | 2.24 m/s, 11° | 1 W/m² | - |
| 1778028473 | 23.89° C | 99% | 1011.8 hPa | 0 mm | 4.47 m/s, 20° | 0 W/m² | - |
| 1778028171 | 23.89° C | 99% | 1011.9 hPa | 0 mm | 3.13 m/s, 29° | 1 W/m² | - |
| 1778027866 | 24.44° C | 99% | 1011.9 hPa | 0 mm | 2.24 m/s, 9° | 1 W/m² | - |
| 1778027563 | 24.44° C | 99% | 1011.8 hPa | 0 mm | 4.02 m/s, 12° | 4 W/m² | - |
| 1778027259 | 25° C | 99% | 1011.7 hPa | 0 mm | 0 m/s | 9 W/m² | - |
| 1778026955 | 25.56° C | 99% | 1011.6 hPa | 0 mm | 1.34 m/s, 353° | 15 W/m² | - |
| 1778026651 | 25.56° C | 99% | 1011.8 hPa | 0 mm | 2.68 m/s, 92° | 21 W/m² | - |
| 1778026349 | 26.11° C | 99% | 1011.8 hPa | 0 mm | 1.34 m/s, 358° | 23 W/m² | - |
| 1778026046 | 26.11° C | 99% | 1011.5 hPa | 0 mm | 1.79 m/s, 17° | 34 W/m² | - |
| 1778025744 | 26.67° C | 99% | 1011 hPa | 0 mm | 1.34 m/s, 266° | 50 W/m² | - |
| 1778025440 | 26.67° C | 99% | 1011 hPa | 0 mm | 0.89 m/s, 26° | 53 W/m² | - |
| 1778025139 | 26.67° C | 99% | 1010.7 hPa | 0 mm | 0.45 m/s, 90° | 32 W/m² | - |
| 1778024835 | 27.22° C | 99% | 1010.8 hPa | 0 mm | 0.89 m/s, 110° | 24 W/m² | - |
| 1778024532 | 27.22° C | 99% | 1011 hPa | 0 mm | 2.24 m/s, 19° | 32 W/m² | - |
| 1778024228 | 27.78° C | 99% | 1010.8 hPa | 0 mm | 1.79 m/s, 8° | 54 W/m² | - |
| 1778023926 | 28.33° C | 99% | 1011 hPa | 0 mm | 3.13 m/s, 51° | 32 W/m² | - |
| 1778023624 | 28.89° C | 99% | 1010.7 hPa | 0 mm | 1.34 m/s, 70° | 54 W/m² | - |
| 1778023321 | 29.44° C | 99% | 1010.6 hPa | 0 mm | 0.89 m/s, 228° | 67 W/m² | - |
| 1778023017 | 29.44° C | 99% | 1010.4 hPa | 0 mm | 1.34 m/s, 293° | 93 W/m² | - |
| 1778022717 | 30° C | 99% | 1010.3 hPa | 0 mm | 0.45 m/s, 325° | 73 W/m² | - |
* Rain latest hour (hover to see other rain measurements)
** Current wind speed in m/s (hover to see current wind gust speed)